Time;durP1;ratioP1;P1;durP2;ratioP2;P2;SDS_P1;SDS_P2;PMS_P1;PMS_P2;Temp;Humidity;BMP_temperature;BMP_pressure;BME280_temperature;BME280_humidity;BME280_pressure;Samples;Min_cycle;Max_cycle;Signal;HPM_P1;HPM_P2
2023/10/25 00:00:05;;;;;;;84.63;77.75;;;15.40;99.90;;;;;;4957909;28;20408;-70
2023/10/25 00:02:32;;;;;;;66.20;60.65;;;15.50;99.90;;;;;;4964439;28;20050;-70
2023/10/25 00:04:58;;;;;;;76.70;71.50;;;15.50;99.90;;;;;;4965421;28;20031;-71
2023/10/25 00:07:24;;;;;;;63.25;57.65;;;15.60;99.90;;;;;;4957521;28;20035;-70
2023/10/25 00:09:50;;;;;;;58.45;53.83;;;15.50;99.90;;;;;;4958416;28;20031;-71
2023/10/25 00:12:16;;;;;;;58.42;54.10;;;15.60;99.90;;;;;;4957379;28;20039;-70
2023/10/25 00:14:42;;;;;;;62.60;58.00;;;15.60;99.90;;;;;;4959053;28;20480;-70
2023/10/25 00:17:08;;;;;;;62.13;56.97;;;15.60;99.90;;;;;;4957841;28;20087;-70
2023/10/25 00:19:34;;;;;;;68.60;63.60;;;15.60;99.90;;;;;;4958460;28;20499;-70
2023/10/25 00:22:01;;;;;;;77.28;70.55;;;15.60;99.90;;;;;;4957832;28;20051;-70
2023/10/25 00:24:27;;;;;;;63.72;58.05;;;15.60;99.90;;;;;;4965475;28;20027;-70
2023/10/25 00:26:54;;;;;;;63.80;58.90;;;15.60;99.90;;;;;;4964045;28;20039;-70
2023/10/25 00:29:21;;;;;;;63.58;58.33;;;15.50;99.90;;;;;;4958800;28;20181;-70
2023/10/25 00:31:47;;;;;;;62.08;56.63;;;15.50;99.90;;;;;;4957063;28;20058;-70
2023/10/25 00:34:13;;;;;;;65.45;60.13;;;15.60;99.90;;;;;;4960252;28;20039;-70
2023/10/25 00:36:39;;;;;;;63.35;58.10;;;15.60;99.90;;;;;;4961018;28;20042;-70
2023/10/25 00:39:05;;;;;;;71.75;66.28;;;15.50;99.90;;;;;;4961542;28;20486;-70
2023/10/25 00:41:31;;;;;;;76.10;69.47;;;15.60;99.90;;;;;;4962470;28;20039;-70
2023/10/25 00:43:57;;;;;;;75.57;70.00;;;15.60;99.90;;;;;;4965744;28;20522;-70
2023/10/25 00:46:25;;;;;;;74.55;69.05;;;15.60;99.90;;;;;;4960837;28;20042;-70
2023/10/25 00:48:54;;;;;;;76.47;69.85;;;15.60;99.90;;;;;;4960814;28;20495;-70
2023/10/25 00:51:20;;;;;;;70.50;65.15;;;15.60;99.90;;;;;;4966581;28;20050;-70
2023/10/25 00:53:49;;;;;;;80.50;74.32;;;15.60;99.90;;;;;;4951779;28;20050;-70
2023/10/25 00:56:15;;;;;;;77.00;71.78;;;15.60;99.90;;;;;;4961893;28;20039;-70
2023/10/25 00:58:44;;;;;;;84.68;78.72;;;15.60;99.90;;;;;;4968319;28;20034;-70
2023/10/25 01:01:11;;;;;;;108.95;101.63;;;15.60;99.90;;;;;;4966006;28;20053;-71
2023/10/25 01:03:37;;;;;;;84.85;79.22;;;15.60;99.90;;;;;;4960889;28;20050;-70
2023/10/25 01:06:03;;;;;;;72.35;67.43;;;15.60;99.90;;;;;;4966688;28;20026;-71
2023/10/25 01:08:29;;;;;;;71.13;65.60;;;15.60;99.90;;;;;;4961166;28;20039;-70
2023/10/25 01:10:55;;;;;;;66.47;62.08;;;15.60;99.90;;;;;;4959029;28;20038;-70
2023/10/25 01:13:22;;;;;;;72.70;66.68;;;15.70;99.90;;;;;;4959859;28;20035;-70
2023/10/25 01:15:48;;;;;;;73.05;67.22;;;15.60;99.90;;;;;;4961923;28;20423;-70
2023/10/25 01:18:14;;;;;;;63.95;59.10;;;15.60;99.90;;;;;;4960870;28;20023;-70
2023/10/25 01:20:41;;;;;;;64.47;59.55;;;15.70;99.90;;;;;;4960729;28;20055;-71
2023/10/25 01:23:07;;;;;;;64.65;59.83;;;15.70;99.90;;;;;;4958865;28;20071;-70
2023/10/25 01:25:34;;;;;;;69.22;64.18;;;15.70;99.90;;;;;;4966628;28;20412;-70
2023/10/25 01:28:00;;;;;;;77.13;71.63;;;15.70;99.90;;;;;;4967258;28;20480;-70
2023/10/25 01:30:26;;;;;;;68.57;63.47;;;15.80;99.90;;;;;;4960188;28;20039;-70
2023/10/25 01:32:53;;;;;;;86.22;80.10;;;15.80;99.90;;;;;;4960649;28;20042;-70
2023/10/25 01:35:19;;;;;;;72.68;67.25;;;15.80;99.90;;;;;;4961274;28;20043;-71
2023/10/25 01:37:46;;;;;;;81.95;76.45;;;15.80;99.90;;;;;;4963385;28;20034;-71
2023/10/25 01:40:12;;;;;;;60.80;56.00;;;15.70;99.90;;;;;;4967330;28;20392;-71
2023/10/25 01:42:38;;;;;;;61.50;56.67;;;15.70;99.90;;;;;;4961014;28;20058;-70
2023/10/25 01:45:05;;;;;;;64.25;59.53;;;15.80;99.90;;;;;;4958986;28;20034;-70
2023/10/25 01:47:31;;;;;;;68.15;63.65;;;15.80;99.90;;;;;;4958620;28;20039;-70
2023/10/25 01:49:57;;;;;;;57.60;53.63;;;15.80;99.90;;;;;;4958525;28;20390;-70
2023/10/25 01:52:23;;;;;;;73.20;68.53;;;15.80;99.90;;;;;;4956249;28;20046;-70
2023/10/25 01:54:52;;;;;;;75.07;69.90;;;15.80;99.90;;;;;;4963706;28;20038;-70
2023/10/25 01:57:18;;;;;;;61.88;57.40;;;15.70;99.90;;;;;;4958537;28;20035;-70
2023/10/25 01:59:44;;;;;;;62.45;57.50;;;15.70;99.90;;;;;;4966198;28;20039;-70
2023/10/25 02:02:11;;;;;;;66.65;62.17;;;15.70;99.90;;;;;;4956433;28;20057;-70
2023/10/25 02:04:37;;;;;;;68.40;63.65;;;15.70;99.90;;;;;;4957717;28;20039;-71
2023/10/25 02:07:03;;;;;;;51.65;48.03;;;15.70;99.90;;;;;;4958432;28;20042;-70
2023/10/25 02:09:29;;;;;;;58.63;54.47;;;15.70;99.90;;;;;;4960502;28;20031;-70
2023/10/25 02:11:56;;;;;;;55.05;51.00;;;15.70;99.90;;;;;;4960021;28;20023;-70
2023/10/25 02:14:22;;;;;;;49.15;45.80;;;15.70;99.90;;;;;;4957180;28;20035;-70
2023/10/25 02:16:48;;;;;;;56.67;52.67;;;15.70;99.90;;;;;;4960120;28;20504;-70
2023/10/25 02:19:15;;;;;;;56.13;52.28;;;15.70;99.90;;;;;;4956613;28;20039;-69
2023/10/25 02:21:41;;;;;;;56.63;52.92;;;15.70;99.90;;;;;;4956873;28;20378;-70
2023/10/25 02:24:10;;;;;;;58.22;54.50;;;15.70;99.90;;;;;;4957562;28;20857;-70
2023/10/25 02:26:36;;;;;;;57.85;53.60;;;15.70;99.90;;;;;;4956957;28;20491;-70
2023/10/25 02:29:02;;;;;;;52.70;48.97;;;15.80;99.90;;;;;;4955983;28;20058;-70
2023/10/25 02:31:28;;;;;;;48.70;44.92;;;15.80;99.90;;;;;;4955758;28;20042;-70
2023/10/25 02:33:55;;;;;;;48.15;44.60;;;15.90;99.90;;;;;;4956941;28;20038;-70
2023/10/25 02:36:21;;;;;;;55.08;50.47;;;15.90;99.90;;;;;;4955708;28;20046;-70
2023/10/25 02:38:48;;;;;;;62.05;58.10;;;15.90;99.90;;;;;;4961317;28;20737;-70
2023/10/25 02:41:14;;;;;;;55.17;51.30;;;15.90;99.90;;;;;;4960352;28;20039;-69
2023/10/25 02:43:40;;;;;;;61.53;56.78;;;15.90;99.90;;;;;;4956807;28;20054;-71
2023/10/25 02:46:09;;;;;;;57.17;52.97;;;15.90;99.90;;;;;;4958384;28;20510;-70
2023/10/25 02:48:36;;;;;;;66.07;61.22;;;15.90;99.90;;;;;;4961738;28;20043;-70
2023/10/25 02:51:03;;;;;;;54.83;51.15;;;15.90;99.90;;;;;;4963608;28;20045;-70
2023/10/25 02:53:29;;;;;;;52.28;48.38;;;15.90;99.90;;;;;;4958432;28;20030;-70
2023/10/25 02:56:03;;;;;;;48.28;44.85;;;15.90;99.90;;;;;;4959039;28;20369;-70
2023/10/25 02:58:29;;;;;;;44.30;40.67;;;16.00;99.90;;;;;;4958451;28;20038;-70
2023/10/25 03:00:58;;;;;;;42.28;39.08;;;15.90;99.90;;;;;;4961522;28;20041;-70
2023/10/25 03:03:31;;;;;;;44.25;40.67;;;15.90;99.90;;;;;;4960017;28;20050;-70
2023/10/25 03:05:57;;;;;;;43.17;39.78;;;16.00;99.90;;;;;;4957143;28;20476;-70
2023/10/25 03:08:23;;;;;;;45.42;41.75;;;16.00;99.90;;;;;;4957532;28;20023;-70
2023/10/25 03:10:49;;;;;;;44.25;40.90;;;16.00;99.90;;;;;;4960617;28;20043;-70
2023/10/25 03:13:16;;;;;;;43.72;40.20;;;16.00;99.90;;;;;;4959602;28;20034;-70
2023/10/25 03:15:42;;;;;;;42.95;39.75;;;16.10;99.90;;;;;;4958305;28;20050;-71
2023/10/25 03:18:08;;;;;;;45.13;40.60;;;16.00;99.90;;;;;;4961222;28;20031;-70
2023/10/25 03:20:34;;;;;;;40.35;37.38;;;16.00;99.90;;;;;;4958376;28;20773;-70
2023/10/25 03:23:00;;;;;;;42.38;38.45;;;15.90;99.90;;;;;;4957363;28;20051;-71
2023/10/25 03:25:26;;;;;;;42.33;38.60;;;15.90;99.90;;;;;;4958997;28;20027;-71
2023/10/25 03:27:52;;;;;;;40.88;37.72;;;15.90;99.90;;;;;;4956665;28;20039;-70
2023/10/25 03:30:19;;;;;;;51.33;47.25;;;16.00;99.90;;;;;;4963698;28;20085;-71
2023/10/25 03:32:45;;;;;;;49.80;45.53;;;16.00;99.90;;;;;;4957930;28;20412;-70
2023/10/25 03:35:11;;;;;;;48.05;43.58;;;16.00;99.90;;;;;;4958032;28;20031;-70
2023/10/25 03:37:39;;;;;;;47.92;43.70;;;16.00;99.90;;;;;;4959212;28;20061;-71
2023/10/25 03:40:08;;;;;;;49.55;44.70;;;15.90;99.90;;;;;;4965318;28;20026;-71
2023/10/25 03:42:35;;;;;;;49.50;45.15;;;15.90;99.90;;;;;;4958527;28;20393;-70
2023/10/25 03:45:01;;;;;;;49.33;45.65;;;15.90;99.90;;;;;;4965700;28;20038;-71
2023/10/25 03:47:27;;;;;;;50.08;45.45;;;15.90;99.90;;;;;;4957749;28;20039;-71
2023/10/25 03:49:53;;;;;;;53.55;49.30;;;15.80;99.90;;;;;;4958824;28;20491;-69
2023/10/25 03:52:19;;;;;;;51.72;46.25;;;15.70;99.90;;;;;;4965230;28;20042;-71
2023/10/25 03:54:45;;;;;;;49.90;45.30;;;15.70;99.90;;;;;;4957469;28;20054;-71
2023/10/25 03:57:11;;;;;;;50.63;45.88;;;15.70;99.90;;;;;;4958588;28;20500;-71
2023/10/25 03:59:38;;;;;;;50.78;46.22;;;15.80;99.90;;;;;;4973152;28;20047;-71
2023/10/25 04:02:04;;;;;;;52.75;47.85;;;15.80;99.90;;;;;;4958891;28;20493;-71
2023/10/25 04:04:31;;;;;;;54.67;49.92;;;15.80;99.90;;;;;;4959696;28;21649;-71
2023/10/25 04:06:57;;;;;;;49.70;45.08;;;15.80;99.90;;;;;;4959894;28;20031;-71
2023/10/25 04:09:23;;;;;;;47.05;43.40;;;15.80;99.90;;;;;;4962353;28;20035;-71
2023/10/25 04:11:49;;;;;;;48.65;44.15;;;15.80;99.90;;;;;;4963239;28;20031;-71
2023/10/25 04:14:15;;;;;;;46.42;41.90;;;15.80;99.90;;;;;;4962896;28;20035;-71
2023/10/25 04:16:41;;;;;;;46.53;42.25;;;15.80;99.90;;;;;;4961867;28;20070;-71
2023/10/25 04:19:07;;;;;;;48.00;43.78;;;15.80;99.90;;;;;;4964367;28;20046;-71
2023/10/25 04:21:33;;;;;;;45.75;41.72;;;15.80;99.90;;;;;;4963745;28;20038;-71
2023/10/25 04:24:01;;;;;;;53.33;48.35;;;15.80;99.90;;;;;;4963493;28;20472;-71
2023/10/25 04:26:28;;;;;;;49.47;44.92;;;15.80;99.90;;;;;;4961505;28;20046;-71
2023/10/25 04:28:54;;;;;;;47.03;41.83;;;15.80;99.90;;;;;;4963138;28;20042;-71
2023/10/25 04:31:23;;;;;;;48.08;43.45;;;15.80;99.90;;;;;;4969706;28;20035;-71
2023/10/25 04:33:49;;;;;;;44.10;39.40;;;15.70;99.90;;;;;;4963690;28;20038;-71
2023/10/25 04:36:15;;;;;;;45.25;41.03;;;15.70;99.90;;;;;;4961173;28;20415;-71
2023/10/25 04:38:42;;;;;;;44.50;39.88;;;15.70;99.90;;;;;;4962696;28;20039;-71
2023/10/25 04:41:08;;;;;;;55.03;49.38;;;15.70;99.90;;;;;;4962748;28;20499;-71
2023/10/25 04:43:34;;;;;;;53.47;48.05;;;15.70;99.90;;;;;;4965622;28;20049;-71
2023/10/25 04:46:00;;;;;;;54.95;49.70;;;15.70;99.90;;;;;;4977496;28;20382;-71
2023/10/25 04:48:26;;;;;;;45.17;39.58;;;15.70;99.90;;;;;;4963571;28;20047;-71
2023/10/25 04:50:52;;;;;;;47.45;43.25;;;15.70;99.90;;;;;;4969077;28;20032;-71
2023/10/25 04:53:18;;;;;;;46.60;41.58;;;15.70;99.90;;;;;;4969430;28;20035;-71
2023/10/25 04:55:45;;;;;;;46.13;41.65;;;15.80;99.90;;;;;;4962552;28;20043;-71
2023/10/25 04:58:11;;;;;;;50.33;45.67;;;15.80;99.90;;;;;;4969700;28;20038;-71
2023/10/25 05:00:38;;;;;;;44.05;39.85;;;15.80;99.90;;;;;;4968429;28;20049;-71
2023/10/25 05:03:08;;;;;;;48.75;44.45;;;15.80;99.90;;;;;;4970629;28;20061;-71
2023/10/25 05:05:39;;;;;;;43.80;39.50;;;15.80;99.90;;;;;;4961643;28;20050;-71
2023/10/25 05:08:06;;;;;;;42.20;38.47;;;15.80;99.90;;;;;;4963556;28;20050;-72
2023/10/25 05:10:33;;;;;;;40.67;36.75;;;15.90;99.90;;;;;;4961987;28;20035;-70
2023/10/25 05:12:59;;;;;;;41.05;36.95;;;16.00;99.90;;;;;;4962775;28;20039;-70
2023/10/25 05:15:27;;;;;;;40.92;36.88;;;16.00;99.90;;;;;;4952966;28;20035;-70
2023/10/25 05:17:53;;;;;;;45.85;41.38;;;15.90;99.90;;;;;;4961777;28;20051;-70
2023/10/25 05:20:20;;;;;;;46.83;41.88;;;15.90;99.90;;;;;;4960333;28;20062;-70
2023/10/25 05:22:50;;;;;;;81.00;74.82;;;15.90;99.90;;;;;;4962273;28;20035;-71
2023/10/25 05:25:17;;;;;;;108.10;100.63;;;16.00;99.90;;;;;;4959015;28;20036;-70
2023/10/25 05:27:43;;;;;;;77.45;71.43;;;16.00;99.90;;;;;;4963389;28;20027;-70
2023/10/25 05:30:12;;;;;;;77.40;71.55;;;15.90;99.90;;;;;;4966655;28;20045;-70
2023/10/25 05:32:39;;;;;;;80.32;74.28;;;16.00;99.90;;;;;;4960099;28;20042;-70
2023/10/25 05:35:06;;;;;;;75.53;69.90;;;15.90;99.90;;;;;;4962566;28;20051;-70
2023/10/25 05:37:32;;;;;;;76.85;70.47;;;15.90;99.90;;;;;;4961445;28;20028;-70
2023/10/25 05:39:59;;;;;;;73.55;67.65;;;15.80;99.90;;;;;;4961172;28;20090;-70
2023/10/25 05:42:25;;;;;;;60.70;56.13;;;15.70;99.90;;;;;;4960387;28;20043;-70
2023/10/25 05:44:53;;;;;;;72.35;67.03;;;15.70;99.90;;;;;;4960442;28;20031;-70
2023/10/25 05:47:26;;;;;;;70.88;65.00;;;15.70;99.90;;;;;;4959957;28;20412;-70
2023/10/25 05:49:53;;;;;;;67.50;61.70;;;15.70;99.90;;;;;;4968705;28;20050;-70
2023/10/25 05:52:20;;;;;;;69.10;63.92;;;15.70;99.90;;;;;;4967646;28;20404;-70
2023/10/25 05:54:46;;;;;;;68.38;63.30;;;15.70;99.90;;;;;;4961557;28;20033;-70
2023/10/25 05:57:12;;;;;;;60.38;56.13;;;15.70;99.90;;;;;;4962046;28;20038;-70
2023/10/25 05:59:40;;;;;;;57.92;53.63;;;15.70;99.90;;;;;;4961058;28;20034;-70
2023/10/25 06:02:22;;;;;;;54.15;49.55;;;15.70;99.90;;;;;;4961463;28;20527;-70
2023/10/25 06:04:49;;;;;;;63.88;59.28;;;15.70;99.90;;;;;;4962574;28;20055;-70
2023/10/25 06:07:15;;;;;;;68.90;64.13;;;15.70;99.90;;;;;;4975643;28;20116;-70
2023/10/25 06:09:41;;;;;;;55.75;51.40;;;15.70;99.90;;;;;;4961883;28;20035;-71
2023/10/25 06:12:08;;;;;;;54.80;50.38;;;15.70;99.90;;;;;;4961534;28;20050;-70
2023/10/25 06:14:34;;;;;;;50.42;46.88;;;15.70;99.90;;;;;;4968167;28;20030;-70
2023/10/25 06:17:01;;;;;;;49.05;44.90;;;15.70;99.90;;;;;;4967422;28;20059;-71
2023/10/25 06:19:27;;;;;;;53.38;49.58;;;15.70;99.90;;;;;;4961834;28;20396;-70
2023/10/25 06:21:53;;;;;;;52.08;48.38;;;15.60;99.90;;;;;;4967668;28;20038;-70
2023/10/25 06:24:20;;;;;;;47.78;43.97;;;15.60;99.90;;;;;;4961905;28;20039;-70
2023/10/25 06:26:46;;;;;;;45.70;42.13;;;15.60;99.90;;;;;;4967553;28;20042;-70
2023/10/25 06:29:12;;;;;;;47.97;44.25;;;15.60;99.90;;;;;;4962022;28;20038;-70
2023/10/25 06:31:38;;;;;;;39.47;36.25;;;15.60;99.90;;;;;;4960290;28;20396;-70
2023/10/25 06:34:04;;;;;;;46.25;43.08;;;15.60;99.90;;;;;;4960501;28;20039;-69
2023/10/25 06:36:34;;;;;;;48.72;45.10;;;15.60;99.90;;;;;;4960194;28;21213;-70
2023/10/25 06:39:04;;;;;;;44.13;40.97;;;15.60;99.90;;;;;;4961299;28;20046;-70
2023/10/25 06:41:30;;;;;;;47.72;44.28;;;15.60;99.90;;;;;;4960709;28;20027;-70
2023/10/25 06:43:57;;;;;;;50.55;47.03;;;15.50;99.90;;;;;;4960653;28;20043;-69
2023/10/25 06:46:23;;;;;;;51.80;47.92;;;15.50;99.90;;;;;;4959599;28;20042;-70
2023/10/25 06:48:50;;;;;;;47.90;44.38;;;15.50;99.90;;;;;;4961132;28;20031;-69
2023/10/25 06:51:16;;;;;;;51.95;48.20;;;15.50;99.90;;;;;;4961181;28;20073;-69
2023/10/25 06:53:42;;;;;;;51.80;48.05;;;15.50;99.90;;;;;;4959721;28;20039;-70
2023/10/25 06:56:09;;;;;;;55.53;51.90;;;15.60;99.90;;;;;;4966579;28;20373;-70
2023/10/25 06:58:37;;;;;;;50.72;47.25;;;15.50;99.90;;;;;;4960765;28;20034;-69
2023/10/25 07:01:03;;;;;;;44.25;40.17;;;15.50;99.90;;;;;;4961402;28;20531;-70
2023/10/25 07:03:36;;;;;;;53.63;49.63;;;15.50;99.90;;;;;;4970756;28;20038;-70
2023/10/25 07:06:03;;;;;;;49.90;45.97;;;15.50;99.90;;;;;;4970280;28;20034;-70
2023/10/25 07:08:33;;;;;;;51.13;47.47;;;15.50;99.90;;;;;;4967993;28;20488;-69
2023/10/25 07:10:59;;;;;;;47.38;43.63;;;15.50;99.90;;;;;;4955239;28;20085;-70
2023/10/25 07:13:26;;;;;;;43.67;40.35;;;15.50;99.90;;;;;;4963172;28;21950;-69
2023/10/25 07:15:53;;;;;;;43.58;40.47;;;15.50;99.90;;;;;;4970289;28;20369;-70
2023/10/25 07:18:19;;;;;;;47.10;43.53;;;15.50;99.90;;;;;;4964016;28;20031;-70
2023/10/25 07:20:45;;;;;;;52.72;48.92;;;15.60;99.90;;;;;;4971053;28;20050;-70
2023/10/25 07:23:12;;;;;;;52.08;48.42;;;15.50;99.90;;;;;;4972423;28;20062;-70
2023/10/25 07:25:38;;;;;;;47.88;44.03;;;15.60;99.90;;;;;;4970561;28;20419;-70
2023/10/25 07:28:05;;;;;;;48.60;45.10;;;15.60;99.90;;;;;;4982073;28;20035;-70
2023/10/25 07:30:33;;;;;;;55.47;51.53;;;15.60;99.90;;;;;;4961051;28;20039;-70
2023/10/25 07:32:59;;;;;;;48.28;44.72;;;15.50;99.90;;;;;;4967044;28;20046;-70
2023/10/25 07:35:25;;;;;;;47.83;44.72;;;15.50;99.90;;;;;;4963231;28;20035;-70
2023/10/25 07:37:51;;;;;;;61.17;57.15;;;15.50;99.90;;;;;;4971940;28;20407;-70
2023/10/25 07:40:17;;;;;;;58.30;54.88;;;15.60;99.90;;;;;;4963222;28;20041;-72
2023/10/25 07:42:43;;;;;;;62.08;57.90;;;15.60;99.90;;;;;;4969991;28;20046;-70
2023/10/25 07:45:09;;;;;;;62.33;58.55;;;15.60;99.90;;;;;;4961133;28;20047;-70
2023/10/25 07:47:35;;;;;;;64.43;60.33;;;15.60;99.90;;;;;;4967907;28;20046;-70
2023/10/25 07:50:04;;;;;;;73.85;69.30;;;15.70;99.90;;;;;;4958567;28;20392;-70
2023/10/25 07:52:30;;;;;;;60.53;56.78;;;15.70;99.90;;;;;;4959230;28;20050;-70
2023/10/25 07:54:57;;;;;;;71.20;66.35;;;15.70;99.90;;;;;;4956821;28;20042;-70
2023/10/25 07:57:25;;;;;;;85.03;79.82;;;15.70;99.90;;;;;;4955146;28;20539;-69
2023/10/25 07:59:51;;;;;;;71.60;67.03;;;15.70;99.90;;;;;;4956551;28;20035;-70
2023/10/25 08:02:17;;;;;;;70.30;65.50;;;15.80;99.90;;;;;;4963907;28;20053;-70
2023/10/25 08:04:43;;;;;;;85.72;79.95;;;15.80;99.90;;;;;;4972330;28;20050;-70
2023/10/25 08:07:10;;;;;;;65.32;60.92;;;15.80;99.90;;;;;;4971697;28;20039;-70
2023/10/25 08:09:38;;;;;;;70.47;66.20;;;15.80;99.90;;;;;;4963716;28;20411;-71
2023/10/25 08:12:04;;;;;;;60.67;56.63;;;15.80;99.90;;;;;;4966485;28;20035;-70
2023/10/25 08:14:30;;;;;;;68.28;63.97;;;15.80;99.90;;;;;;4970475;28;20039;-71
2023/10/25 08:16:56;;;;;;;65.93;61.13;;;15.80;99.90;;;;;;4966006;28;20054;-70
2023/10/25 08:19:22;;;;;;;84.97;79.65;;;15.80;99.90;;;;;;4966553;28;20038;-70
2023/10/25 08:21:49;;;;;;;70.20;66.03;;;15.80;99.90;;;;;;4965537;28;20039;-70
2023/10/25 08:24:15;;;;;;;68.18;64.05;;;15.80;99.90;;;;;;4961709;28;20042;-71
2023/10/25 08:26:41;;;;;;;83.22;78.18;;;15.80;99.90;;;;;;4963649;28;20046;-71
2023/10/25 08:29:07;;;;;;;66.38;62.50;;;15.80;99.90;;;;;;4972281;28;20042;-71
2023/10/25 08:31:33;;;;;;;56.13;52.03;;;15.80;99.90;;;;;;4972068;28;20488;-71
2023/10/25 08:34:00;;;;;;;47.75;44.25;;;15.80;99.90;;;;;;4972751;28;20038;-71
2023/10/25 08:36:28;;;;;;;53.35;50.00;;;15.80;99.90;;;;;;4961228;28;20028;-71
2023/10/25 08:38:55;;;;;;;49.92;46.72;;;15.90;99.90;;;;;;4960668;28;20034;-72
2023/10/25 08:41:22;;;;;;;48.90;45.33;;;15.80;99.90;;;;;;4961369;28;20103;-68
2023/10/25 08:43:48;;;;;;;44.92;41.53;;;15.90;99.90;;;;;;4943446;28;20047;-70
2023/10/25 08:46:14;;;;;;;58.83;54.80;;;15.90;99.90;;;;;;4961728;28;20041;-69
2023/10/25 08:48:42;;;;;;;64.38;60.03;;;16.00;99.90;;;;;;4971360;28;20509;-71
2023/10/25 08:51:08;;;;;;;61.65;56.92;;;15.90;99.90;;;;;;4965283;28;20035;-71
2023/10/25 08:53:35;;;;;;;66.35;62.13;;;15.90;99.90;;;;;;4958628;28;20487;-71
2023/10/25 08:56:01;;;;;;;58.72;54.47;;;15.90;99.90;;;;;;4965983;28;20030;-70
2023/10/25 08:58:27;;;;;;;58.05;53.88;;;15.90;99.90;;;;;;4975461;28;20515;-71
2023/10/25 09:00:54;;;;;;;57.97;54.33;;;15.90;99.90;;;;;;4975546;28;20049;-71
2023/10/25 09:03:33;;;;;;;55.53;51.38;;;16.00;99.90;;;;;;4974875;28;20027;-71
2023/10/25 09:05:59;;;;;;;57.67;53.97;;;16.00;99.90;;;;;;4973252;28;20046;-71
2023/10/25 09:08:26;;;;;;;70.13;65.47;;;16.10;99.90;;;;;;4975205;28;20042;-71
2023/10/25 09:11:03;;;;;;;77.47;72.75;;;16.20;99.90;;;;;;4971330;28;20039;-71
2023/10/25 09:13:33;;;;;;;90.32;85.43;;;16.30;99.90;;;;;;4939973;29;20488;-71
2023/10/25 09:16:07;;;;;;;81.00;76.18;;;16.30;99.90;;;;;;4956368;28;20050;-71
2023/10/25 09:18:34;;;;;;;89.68;84.38;;;16.50;99.90;;;;;;4963863;28;20031;-71
2023/10/25 09:21:01;;;;;;;79.57;75.00;;;16.50;99.90;;;;;;4958255;28;20030;-71
2023/10/25 09:23:28;;;;;;;84.47;79.90;;;16.50;99.90;;;;;;4957306;28;20043;-71
2023/10/25 09:25:55;;;;;;;109.20;103.18;;;16.50;99.90;;;;;;4967471;28;20038;-70
2023/10/25 09:28:29;;;;;;;73.97;69.20;;;16.50;99.90;;;;;;4961509;28;20034;-71
2023/10/25 09:30:59;;;;;;;80.90;76.15;;;16.50;99.90;;;;;;4966183;28;20042;-65
2023/10/25 09:33:28;;;;;;;87.47;82.50;;;16.50;99.90;;;;;;4963026;28;20031;-70
2023/10/25 09:35:55;;;;;;;83.78;79.07;;;16.50;99.90;;;;;;4965253;28;20052;-69
2023/10/25 09:38:22;;;;;;;73.70;69.47;;;16.50;99.90;;;;;;4964201;28;20520;-70
2023/10/25 09:40:48;;;;;;;83.70;79.00;;;16.50;99.90;;;;;;4970109;28;20019;-70
2023/10/25 09:43:15;;;;;;;97.88;92.88;;;16.50;99.90;;;;;;4946018;28;20027;-69
2023/10/25 09:45:43;;;;;;;108.35;102.70;;;16.60;99.90;;;;;;4968996;28;20046;-70
2023/10/25 09:48:11;;;;;;;156.07;148.20;;;16.70;99.90;;;;;;4971097;28;20035;-70
2023/10/25 09:50:38;;;;;;;93.40;88.53;;;16.70;99.90;;;;;;4973706;28;20031;-72
2023/10/25 09:53:11;;;;;;;84.32;79.63;;;16.60;99.90;;;;;;4974357;28;20035;-71
2023/10/25 09:55:37;;;;;;;90.13;85.28;;;16.60;99.90;;;;;;4970177;28;20072;-70
2023/10/25 09:58:03;;;;;;;91.75;87.07;;;16.50;99.90;;;;;;4954969;29;20039;-70
2023/10/25 10:00:30;;;;;;;82.50;77.93;;;16.50;99.90;;;;;;4943310;28;20447;-70
2023/10/25 10:03:02;;;;;;;114.80;108.88;;;16.40;99.90;;;;;;4958604;28;20061;-70
2023/10/25 10:05:51;;;;;;;94.25;89.38;;;16.50;99.90;;;;;;4972845;28;20039;-70
2023/10/25 10:08:23;;;;;;;78.53;74.18;;;16.50;99.90;;;;;;4973940;28;20022;-70
2023/10/25 10:11:00;;;;;;;90.30;85.50;;;16.50;99.90;;;;;;4959192;28;20356;-70
2023/10/25 10:13:26;;;;;;;144.13;136.75;;;16.60;99.90;;;;;;4973968;28;20038;-70
2023/10/25 10:16:04;;;;;;;143.65;136.48;;;16.60;99.90;;;;;;4964659;28;20031;-71
2023/10/25 10:18:37;;;;;;;137.32;130.15;;;16.50;99.90;;;;;;4954860;28;20055;-70
2023/10/25 10:21:08;;;;;;;127.53;121.18;;;16.50;99.90;;;;;;4956457;28;20101;-71
2023/10/25 10:23:39;;;;;;;119.70;113.55;;;16.40;99.90;;;;;;4955431;28;20380;-71
2023/10/25 10:26:07;;;;;;;133.45;126.53;;;16.40;99.90;;;;;;4948948;29;20039;-68
2023/10/25 10:28:46;;;;;;;143.90;136.68;;;16.40;99.90;;;;;;4953736;29;20381;-70
2023/10/25 10:31:13;;;;;;;155.85;147.95;;;16.40;99.90;;;;;;4963707;28;20043;-71
2023/10/25 10:33:49;;;;;;;144.90;137.45;;;16.40;99.90;;;;;;4962696;28;20035;-71
2023/10/25 10:36:24;;;;;;;160.25;152.18;;;16.50;99.90;;;;;;4964874;28;20031;-70
2023/10/25 10:39:10;;;;;;;141.02;133.93;;;16.50;99.90;;;;;;4971832;28;20053;-71
2023/10/25 10:41:36;;;;;;;128.85;122.47;;;16.50;99.90;;;;;;4958253;28;20395;-71
2023/10/25 10:44:03;;;;;;;143.98;137.00;;;16.50;99.90;;;;;;4967381;28;20054;-70
2023/10/25 10:46:30;;;;;;;170.75;162.25;;;16.60;99.90;;;;;;4961608;28;20043;-70
2023/10/25 10:49:01;;;;;;;167.57;159.18;;;16.70;99.90;;;;;;4955315;28;20047;-70
2023/10/25 10:51:29;;;;;;;143.00;135.98;;;16.70;99.90;;;;;;4959146;28;20023;-70
2023/10/25 10:53:55;;;;;;;158.00;150.27;;;16.60;99.90;;;;;;4966756;28;20039;-70
2023/10/25 10:56:22;;;;;;;154.13;146.38;;;16.70;99.90;;;;;;4972357;28;20479;-70
2023/10/25 10:58:48;;;;;;;167.20;158.85;;;16.70;99.90;;;;;;4966611;28;20039;-70
2023/10/25 11:01:14;;;;;;;182.68;173.30;;;16.80;99.90;;;;;;4957759;28;20035;-71
2023/10/25 11:03:40;;;;;;;174.07;165.60;;;16.80;99.90;;;;;;4953215;29;20038;-70
2023/10/25 11:06:06;;;;;;;130.70;124.05;;;16.80;99.90;;;;;;4955964;28;20416;-71
2023/10/25 11:08:32;;;;;;;130.00;123.45;;;16.70;99.90;;;;;;4972518;28;20039;-71
2023/10/25 11:10:58;;;;;;;109.53;104.03;;;16.70;99.90;;;;;;4972929;28;20045;-70
2023/10/25 11:13:25;;;;;;;127.55;121.07;;;16.60;99.90;;;;;;4972175;28;20388;-70
2023/10/25 11:16:06;;;;;;;114.22;108.72;;;16.70;99.90;;;;;;4967303;28;20369;-70
2023/10/25 11:18:32;;;;;;;107.22;101.97;;;16.70;99.90;;;;;;4953872;28;20039;-71
2023/10/25 11:21:00;;;;;;;102.18;96.85;;;16.70;99.90;;;;;;4970832;28;20042;-71
2023/10/25 11:23:26;;;;;;;107.00;101.80;;;16.70;99.90;;;;;;4971906;28;20408;-70
2023/10/25 11:25:53;;;;;;;109.03;103.72;;;16.60;99.90;;;;;;4955501;28;20050;-70
2023/10/25 11:28:20;;;;;;;101.53;96.63;;;16.60;99.90;;;;;;4970543;28;20054;-71
2023/10/25 11:30:48;;;;;;;149.68;142.35;;;16.60;99.90;;;;;;4941988;28;20035;-71
2023/10/25 11:33:15;;;;;;;136.38;129.80;;;16.50;99.90;;;;;;4966928;28;20035;-70
2023/10/25 11:35:42;;;;;;;122.15;116.28;;;16.60;99.90;;;;;;4963313;28;20043;-71
2023/10/25 11:38:11;;;;;;;101.18;96.28;;;16.60;99.90;;;;;;4960267;28;20035;-71
2023/10/25 11:40:39;;;;;;;86.80;82.68;;;16.50;99.90;;;;;;4961930;28;20035;-70
2023/10/25 11:43:06;;;;;;;106.03;100.70;;;16.50;99.90;;;;;;4965613;28;20027;-71
2023/10/25 11:45:32;;;;;;;110.57;105.22;;;16.50;99.90;;;;;;4969679;28;20043;-70
2023/10/25 11:47:58;;;;;;;103.75;98.55;;;16.60;99.90;;;;;;4969174;28;20030;-71
2023/10/25 11:50:24;;;;;;;122.95;116.72;;;16.60;99.90;;;;;;4960257;28;20035;-71
2023/10/25 11:52:51;;;;;;;91.72;87.05;;;16.60;99.90;;;;;;4968984;28;20415;-70
2023/10/25 11:55:17;;;;;;;96.50;91.80;;;16.70;99.90;;;;;;4956494;28;20046;-70
2023/10/25 11:57:43;;;;;;;98.70;93.93;;;16.70;99.90;;;;;;4952582;28;20076;-71
2023/10/25 12:00:09;;;;;;;155.77;147.60;;;16.80;99.90;;;;;;4972289;28;20038;-71
2023/10/25 12:02:35;;;;;;;124.05;117.72;;;16.70;99.90;;;;;;4953999;28;20046;-70
2023/10/25 12:05:03;;;;;;;142.68;135.32;;;16.60;99.90;;;;;;4953543;28;20039;-71
2023/10/25 12:07:31;;;;;;;151.10;143.38;;;16.50;99.90;;;;;;4971838;28;20403;-70
2023/10/25 12:09:57;;;;;;;96.00;91.25;;;16.50;99.90;;;;;;4968385;28;20034;-70
2023/10/25 12:12:23;;;;;;;92.82;88.22;;;16.50;99.90;;;;;;4953148;28;20032;-71
2023/10/25 12:14:50;;;;;;;141.18;134.07;;;16.60;99.90;;;;;;4953619;28;20043;-71
2023/10/25 12:17:16;;;;;;;129.40;122.78;;;16.50;99.90;;;;;;4952412;28;20062;-70
2023/10/25 12:19:43;;;;;;;122.97;116.90;;;16.50;99.90;;;;;;4953287;28;20046;-70
2023/10/25 12:22:12;;;;;;;121.80;115.65;;;16.50;99.90;;;;;;4964266;28;20039;-70